createdAt,value
2018-07-12T00:00:29.309Z,60.39
2018-07-12T00:02:56.543Z,59.66
2018-07-12T00:05:22.776Z,60.09
2018-07-12T00:07:49.067Z,59.31
2018-07-12T00:10:15.279Z,59.14
2018-07-12T00:12:41.390Z,57.99
2018-07-12T00:15:08.192Z,58.31
2018-07-12T00:17:34.339Z,58.41
2018-07-12T00:20:01.211Z,59.26
2018-07-12T00:22:27.360Z,59.86
2018-07-12T00:24:53.508Z,60.35
2018-07-12T00:27:19.658Z,59.63
2018-07-12T00:29:46.878Z,60.54
2018-07-12T00:32:13.703Z,59.88
2018-07-12T00:34:39.800Z,59.86
2018-07-12T00:37:05.975Z,59.66
2018-07-12T00:39:32.166Z,58.74
2018-07-12T00:41:58.309Z,59.64
2018-07-12T00:44:24.467Z,59.75
2018-07-12T00:46:54.312Z,58.85
2018-07-12T00:49:21.175Z,60.06
2018-07-12T00:51:47.331Z,59.89
2018-07-12T00:54:13.517Z,61.15
2018-07-12T00:56:39.723Z,60.70
2018-07-12T00:59:05.880Z,61.42
2018-07-12T01:01:32.186Z,60.92
2018-07-12T01:03:59.443Z,61.91
2018-07-12T01:06:25.674Z,60.30
2018-07-12T01:08:51.820Z,62.21
2018-07-12T01:11:18.008Z,61.75
2018-07-12T01:13:46.694Z,60.70
2018-07-12T01:16:15.891Z,61.82
2018-07-12T01:18:42.247Z,61.25
2018-07-12T01:21:08.440Z,61.87
2018-07-12T01:23:36.604Z,61.84
2018-07-12T01:26:05.822Z,63.35
2018-07-12T01:28:33.680Z,62.34
2018-07-12T01:30:59.968Z,62.33
2018-07-12T01:33:27.210Z,63.43
2018-07-12T01:35:53.497Z,63.48
2018-07-12T01:38:21.710Z,63.31
2018-07-12T01:40:49.728Z,62.15
2018-07-12T01:43:16.675Z,62.58
2018-07-12T01:45:42.810Z,60.73
2018-07-12T01:48:08.984Z,61.40
2018-07-12T01:50:35.100Z,61.68
2018-07-12T01:53:02.220Z,61.28
2018-07-12T01:55:28.355Z,60.89
2018-07-12T01:57:55.234Z,60.58
2018-07-12T02:00:23.422Z,61.21
2018-07-12T02:02:49.574Z,61.32
2018-07-12T02:05:16.038Z,61.75
2018-07-12T02:07:42.271Z,60.22
2018-07-12T02:10:09.496Z,60.54
2018-07-12T02:12:35.700Z,61.45
2018-07-12T02:15:02.886Z,60.40
2018-07-12T02:17:33.676Z,60.39
2018-07-12T02:20:00.931Z,60.12
2018-07-12T02:22:30.149Z,62.06
2018-07-12T02:24:57.348Z,61.43
2018-07-12T02:27:26.448Z,60.81
2018-07-12T02:29:52.638Z,60.35
2018-07-12T02:32:19.857Z,60.61
2018-07-12T02:34:46.021Z,60.25
2018-07-12T02:37:13.233Z,61.04
2018-07-12T02:39:42.347Z,61.07
2018-07-12T02:42:09.283Z,60.35
2018-07-12T02:44:36.467Z,60.07
2018-07-12T02:47:02.745Z,60.22
2018-07-12T02:49:28.873Z,60.15
2018-07-12T02:51:55.015Z,61.20
2018-07-12T02:54:21.166Z,61.89
2018-07-12T02:56:47.340Z,63.10
2018-07-12T02:59:18.716Z,63.39
2018-07-12T03:01:46.813Z,62.78
2018-07-12T03:04:12.943Z,64.05
2018-07-12T03:06:39.126Z,63.46
2018-07-12T03:09:06.478Z,61.75
2018-07-12T03:11:34.566Z,62.16
2018-07-12T03:14:00.744Z,61.53
2018-07-12T03:16:26.921Z,62.69
2018-07-12T03:18:55.200Z,61.27
2018-07-12T03:21:24.396Z,61.75
2018-07-12T03:23:50.559Z,63.22
2018-07-12T03:26:16.705Z,61.47
2018-07-12T03:28:42.862Z,61.00
2018-07-12T03:31:11.090Z,62.50
2018-07-12T03:33:38.751Z,62.68
2018-07-12T03:36:04.919Z,62.45
2018-07-12T03:38:32.170Z,64.09
2018-07-12T03:40:59.256Z,62.62
2018-07-12T03:43:25.420Z,64.31
2018-07-12T03:45:51.591Z,64.58
2018-07-12T03:48:19.252Z,62.89
2018-07-12T03:50:47.450Z,65.48
2018-07-12T03:53:14.275Z,66.31
2018-07-12T03:55:40.438Z,62.71
2018-07-12T03:58:08.357Z,62.76
2018-07-12T04:00:37.496Z,62.82
2018-07-12T04:03:04.744Z,63.73
2018-07-12T04:05:32.836Z,64.19
2018-07-12T04:08:02.486Z,64.35
2018-07-12T04:10:32.723Z,62.96
2018-07-12T04:12:59.901Z,64.35
2018-07-12T04:15:26.758Z,62.92
2018-07-12T04:17:53.833Z,65.18
2018-07-12T04:20:20.006Z,64.51
2018-07-12T04:22:46.717Z,64.42
2018-07-12T04:25:12.857Z,63.93
2018-07-12T04:27:40.091Z,62.17
2018-07-12T04:30:08.288Z,63.24
2018-07-12T04:32:34.403Z,62.07
2018-07-12T04:35:00.481Z,63.70
2018-07-12T04:37:26.550Z,64.89
2018-07-12T04:39:52.640Z,64.67
2018-07-12T04:42:18.695Z,64.70
2018-07-12T04:44:45.779Z,64.64
2018-07-12T04:47:11.855Z,64.35
2018-07-12T04:49:37.955Z,64.63
2018-07-12T04:52:04.038Z,64.68
2018-07-12T04:54:30.127Z,65.19
2018-07-12T04:56:56.723Z,64.60
2018-07-12T04:59:22.927Z,64.83
2018-07-12T05:01:49.328Z,64.07
2018-07-12T05:04:15.459Z,65.02
2018-07-12T05:06:41.536Z,65.09
2018-07-12T05:09:08.746Z,65.20
2018-07-12T05:11:34.824Z,65.11
2018-07-12T05:14:04.221Z,65.65
2018-07-12T05:16:30.299Z,66.30
2018-07-12T05:18:56.382Z,65.86
2018-07-12T05:21:22.466Z,65.51
2018-07-12T05:23:48.802Z,65.12
2018-07-12T05:26:14.883Z,65.00
2018-07-12T05:28:40.973Z,65.51
2018-07-12T05:31:07.107Z,65.32
2018-07-12T05:33:33.177Z,64.09
2018-07-12T05:36:00.080Z,65.34
2018-07-12T05:38:27.287Z,64.43
2018-07-12T05:40:56.476Z,64.94
2018-07-12T05:43:23.393Z,65.22
2018-07-12T05:45:50.400Z,64.84
2018-07-12T05:48:17.324Z,65.10
2018-07-12T05:50:49.684Z,65.17
2018-07-12T05:53:17.867Z,63.77
2018-07-12T05:55:44.770Z,63.60
2018-07-12T05:58:11.740Z,63.29
2018-07-12T06:00:38.863Z,63.14
2018-07-12T06:03:05.720Z,63.32
2018-07-12T06:05:32.615Z,62.31
2018-07-12T06:07:59.527Z,62.10
2018-07-12T06:10:27.398Z,62.13
2018-07-12T06:12:54.292Z,63.53
2018-07-12T06:15:21.190Z,62.53
2018-07-12T06:17:48.101Z,64.06
2018-07-12T06:20:15.043Z,64.96
2018-07-12T06:22:42.022Z,66.99
2018-07-12T06:25:08.892Z,67.19
2018-07-12T06:27:36.740Z,66.93
2018-07-12T06:30:04.551Z,65.99
2018-07-12T06:32:31.376Z,67.53
2018-07-12T06:34:58.273Z,68.62
2018-07-12T06:37:25.163Z,69.10
2018-07-12T06:39:53.057Z,70.85
2018-07-12T06:42:19.951Z,71.14
2018-07-12T06:44:46.867Z,72.33
2018-07-12T06:47:14.743Z,71.09
2018-07-12T06:49:41.680Z,71.96
2018-07-12T06:52:08.670Z,70.21
2018-07-12T06:54:35.554Z,70.88
2018-07-12T06:57:02.587Z,69.49
2018-07-12T06:59:29.500Z,69.45
2018-07-12T07:01:56.475Z,70.60
2018-07-12T07:04:23.364Z,69.87
2018-07-12T07:06:50.256Z,70.64
2018-07-12T07:09:17.169Z,69.35
2018-07-12T07:11:44.094Z,67.96
2018-07-12T07:14:11.027Z,67.55
2018-07-12T07:16:37.927Z,66.23
2018-07-12T07:19:04.868Z,65.40
2018-07-12T07:21:31.966Z,66.12
2018-07-12T07:23:59.032Z,64.81
2018-07-12T07:26:25.992Z,63.86
2018-07-12T07:28:52.877Z,64.05
2018-07-12T07:31:19.860Z,63.22
2018-07-12T07:33:46.765Z,64.10
2018-07-12T07:36:13.693Z,63.08
2018-07-12T07:38:40.896Z,62.38
2018-07-12T07:41:07.839Z,63.34
2018-07-12T07:43:34.747Z,62.65
2018-07-12T07:46:01.650Z,63.65
2018-07-12T07:48:29.177Z,63.21
2018-07-12T07:50:56.076Z,62.19
2018-07-12T07:53:22.980Z,61.51
2018-07-12T07:55:49.888Z,58.77
2018-07-12T07:58:16.793Z,59.42
2018-07-12T08:00:43.694Z,56.87
2018-07-12T08:03:10.608Z,53.44
2018-07-12T08:05:38.536Z,50.25
2018-07-12T08:08:05.823Z,53.95
2018-07-12T08:10:32.735Z,52.48
2018-07-12T08:12:59.645Z,55.29
2018-07-12T08:15:26.539Z,51.23
2018-07-12T08:17:53.466Z,52.24
2018-07-12T08:20:21.545Z,49.69
2018-07-12T08:22:48.465Z,49.95
2018-07-12T08:25:15.393Z,49.07
2018-07-12T08:27:53.933Z,46.42
2018-07-12T08:30:20.832Z,51.85
2018-07-12T08:32:47.724Z,52.37
2018-07-12T08:35:15.643Z,51.08
2018-07-12T08:37:42.540Z,53.01
2018-07-12T08:40:09.436Z,53.20
2018-07-12T08:42:36.385Z,52.93
2018-07-12T08:45:03.231Z,56.58
2018-07-12T08:47:30.129Z,55.83
2018-07-12T08:49:57.078Z,56.37
2018-07-12T08:52:23.977Z,54.35
2018-07-12T08:54:50.900Z,52.68
2018-07-12T08:57:17.801Z,47.30
2018-07-12T08:59:44.715Z,48.80
2018-07-12T09:02:12.784Z,44.01
2018-07-12T09:04:39.715Z,41.92
2018-07-12T09:07:06.708Z,45.06
2018-07-12T09:09:33.606Z,46.26
2018-07-12T09:12:00.520Z,45.76
2018-07-12T09:14:28.325Z,45.47
2018-07-12T09:16:55.227Z,46.53
2018-07-12T09:19:22.127Z,45.45
2018-07-12T09:21:49.084Z,47.76
2018-07-12T09:24:15.957Z,49.35
2018-07-12T09:26:42.846Z,51.59
2018-07-12T09:29:09.776Z,49.38
2018-07-12T09:31:36.664Z,49.29
2018-07-12T09:34:03.583Z,50.23
2018-07-12T09:36:30.619Z,48.21
2018-07-12T09:38:57.529Z,47.96
2018-07-12T09:41:24.563Z,48.37
2018-07-12T09:43:52.170Z,48.72
2018-07-12T09:46:19.217Z,43.64
2018-07-12T09:48:47.453Z,43.95
2018-07-12T09:51:14.756Z,44.61
2018-07-12T09:53:42.722Z,42.53
2018-07-12T09:56:09.686Z,43.05
2018-07-12T09:58:36.525Z,41.62
2018-07-12T10:01:09.099Z,42.56
2018-07-12T10:03:41.844Z,41.48
2018-07-12T10:06:15.558Z,46.94
2018-07-12T10:08:54.990Z,47.74
2018-07-12T10:11:27.719Z,47.49
2018-07-12T10:13:57.426Z,44.62
2018-07-12T10:16:30.265Z,45.51
2018-07-12T10:18:57.186Z,46.32
2018-07-12T10:21:25.807Z,47.34
2018-07-12T10:23:52.753Z,45.16
2018-07-12T10:26:19.740Z,44.30
2018-07-12T10:28:46.763Z,42.34
2018-07-12T10:31:13.672Z,42.29
2018-07-12T10:33:40.571Z,41.75
2018-07-12T10:36:07.469Z,39.60
2018-07-12T10:38:34.409Z,40.03
2018-07-12T10:41:01.319Z,40.90
2018-07-12T10:43:28.227Z,41.39
2018-07-12T10:45:55.179Z,42.71
2018-07-12T10:48:22.098Z,42.38
2018-07-12T10:50:49.024Z,42.44
2018-07-12T10:53:16.226Z,46.26
2018-07-12T10:55:43.200Z,41.70
2018-07-12T10:58:10.095Z,42.60
2018-07-12T11:00:36.990Z,40.07
2018-07-12T11:03:03.891Z,39.98
2018-07-12T11:05:30.782Z,40.13
2018-07-12T11:07:57.727Z,43.59
2018-07-12T11:10:24.678Z,43.81
2018-07-12T11:13:03.365Z,43.65
2018-07-12T11:15:30.272Z,43.31
2018-07-12T11:17:57.161Z,44.59
2018-07-12T11:20:24.080Z,46.42
2018-07-12T11:22:51.044Z,45.33
2018-07-12T11:25:18.932Z,42.86
2018-07-12T11:27:45.818Z,45.81
2018-07-12T11:30:12.748Z,47.67
2018-07-12T11:32:39.641Z,45.73
2018-07-12T11:35:06.637Z,46.31
2018-07-12T11:37:33.519Z,46.01
2018-07-12T11:40:00.414Z,46.82
2018-07-12T11:42:27.323Z,43.99
2018-07-12T11:44:54.337Z,45.10
2018-07-12T11:47:21.222Z,46.31
2018-07-12T11:49:48.115Z,46.33
2018-07-12T11:52:15.251Z,47.21
2018-07-12T11:54:42.144Z,45.10
2018-07-12T11:57:09.039Z,45.71
2018-07-12T11:59:35.946Z,42.13
2018-07-12T12:02:02.929Z,43.27
2018-07-12T12:04:29.859Z,44.70
2018-07-12T12:06:56.830Z,43.89
2018-07-12T12:09:23.673Z,41.47
2018-07-12T12:11:51.084Z,43.30
2018-07-12T12:14:18.005Z,43.17
2018-07-12T12:16:44.919Z,42.96
2018-07-12T12:19:11.848Z,43.97
2018-07-12T12:21:38.802Z,42.41
2018-07-12T12:24:05.712Z,42.88
2018-07-12T12:26:32.604Z,41.76
2018-07-12T12:29:00.293Z,41.28
2018-07-12T12:31:29.252Z,43.01
2018-07-12T12:33:56.153Z,40.08
2018-07-12T12:36:23.117Z,39.06
2018-07-12T12:38:50.717Z,40.19
2018-07-12T12:41:17.827Z,42.70
2018-07-12T12:43:44.751Z,43.21
2018-07-12T12:46:11.695Z,42.56
2018-07-12T12:48:38.697Z,42.14
2018-07-12T12:51:05.699Z,44.03
2018-07-12T12:53:32.595Z,42.19
2018-07-12T12:55:59.503Z,41.04
2018-07-12T12:58:26.448Z,39.09
2018-07-12T13:00:53.344Z,40.29
2018-07-12T13:03:20.244Z,39.88
2018-07-12T13:05:47.148Z,39.30
2018-07-12T13:08:14.050Z,40.63
2018-07-12T13:10:41.971Z,39.84
2018-07-12T13:13:08.914Z,37.94
2018-07-12T13:15:35.852Z,38.22
2018-07-12T13:18:02.767Z,40.89
2018-07-12T13:20:29.675Z,40.89
2018-07-12T13:22:56.562Z,41.02
2018-07-12T13:25:23.498Z,40.07
2018-07-12T13:27:50.492Z,39.71
2018-07-12T13:30:17.595Z,38.97
2018-07-12T13:32:44.569Z,38.14
2018-07-12T13:35:11.472Z,36.30
2018-07-12T13:37:38.421Z,35.87
2018-07-12T13:40:05.339Z,33.02
2018-07-12T13:42:32.317Z,36.64
2018-07-12T13:44:59.264Z,38.02
2018-07-12T13:47:26.187Z,38.14
2018-07-12T13:49:53.096Z,38.90
2018-07-12T13:52:19.999Z,37.34
2018-07-12T13:54:46.965Z,36.45
2018-07-12T13:57:13.853Z,38.55
2018-07-12T13:59:40.779Z,39.22
2018-07-12T14:02:07.700Z,40.46
2018-07-12T14:04:34.675Z,41.95
2018-07-12T14:07:01.597Z,41.37
2018-07-12T14:09:28.488Z,42.07
2018-07-12T14:11:55.439Z,40.65
2018-07-12T14:14:22.350Z,41.17
2018-07-12T14:16:49.273Z,41.09
2018-07-12T14:19:16.188Z,40.46
2018-07-12T14:21:43.107Z,41.16
2018-07-12T14:24:10.012Z,39.44
2018-07-12T14:26:36.958Z,37.75
2018-07-12T14:29:03.832Z,35.91
2018-07-12T14:31:30.759Z,35.77
2018-07-12T14:33:57.635Z,33.19
2018-07-12T14:36:24.548Z,33.85
2018-07-12T14:38:51.520Z,32.46
2018-07-12T14:41:18.435Z,31.40
2018-07-12T14:43:45.322Z,30.07
2018-07-12T14:46:12.208Z,31.05
2018-07-12T14:48:39.123Z,31.08
2018-07-12T14:51:06.599Z,32.28
2018-07-12T14:53:33.491Z,33.62
2018-07-12T14:56:00.396Z,32.96
2018-07-12T14:58:27.294Z,33.10
2018-07-12T15:00:54.346Z,32.80
2018-07-12T15:03:21.296Z,36.07
2018-07-12T15:05:48.210Z,37.28
2018-07-12T15:08:15.208Z,38.29
2018-07-12T15:10:42.175Z,37.32
2018-07-12T15:13:09.087Z,38.06
2018-07-12T15:15:35.982Z,39.89
2018-07-12T15:18:02.917Z,39.38
2018-07-12T15:20:29.835Z,38.22
2018-07-12T15:22:57.487Z,31.83
2018-07-12T15:25:24.389Z,28.71
2018-07-12T15:27:54.475Z,27.14
2018-07-12T15:30:21.986Z,28.01
2018-07-12T15:32:48.867Z,27.78
2018-07-12T15:35:15.815Z,29.24
2018-07-12T15:37:42.724Z,25.93
2018-07-12T15:40:09.622Z,24.86
2018-07-12T15:42:36.532Z,25.99
2018-07-12T15:45:03.937Z,28.75
2018-07-12T15:47:30.881Z,28.42
2018-07-12T15:49:57.817Z,28.14
2018-07-12T15:52:24.717Z,28.18
2018-07-12T15:54:51.620Z,25.66
2018-07-12T15:57:18.563Z,25.59
2018-07-12T15:59:45.480Z,27.11
2018-07-12T16:02:12.404Z,27.21
2018-07-12T16:04:39.275Z,26.74
2018-07-12T16:07:07.275Z,25.65
2018-07-12T16:09:35.056Z,25.41
2018-07-12T16:12:02.034Z,24.13
2018-07-12T16:14:31.221Z,23.02
2018-07-12T16:16:59.149Z,23.00
2018-07-12T16:19:26.028Z,23.70
2018-07-12T16:21:52.940Z,26.19
2018-07-12T16:24:19.871Z,26.87
2018-07-12T16:26:46.823Z,25.34
2018-07-12T16:29:13.704Z,24.86
2018-07-12T16:31:40.624Z,27.15
2018-07-12T16:34:07.694Z,28.17
2018-07-12T16:36:35.555Z,27.76
2018-07-12T16:39:04.582Z,25.69
2018-07-12T16:41:32.543Z,28.22
2018-07-12T16:43:59.459Z,26.17
2018-07-12T16:46:26.401Z,26.36
2018-07-12T16:48:53.328Z,27.54
2018-07-12T16:51:20.215Z,27.95
2018-07-12T16:53:47.135Z,27.13
2018-07-12T16:56:14.023Z,26.50
2018-07-12T16:58:42.011Z,26.68
2018-07-12T17:01:08.927Z,26.95
2018-07-12T17:03:35.887Z,26.39
2018-07-12T17:06:02.842Z,26.62
2018-07-12T17:08:30.568Z,26.36
2018-07-12T17:10:57.486Z,24.76
2018-07-12T17:13:24.372Z,25.92
2018-07-12T17:15:52.482Z,25.95
2018-07-12T17:18:22.602Z,26.32
2018-07-12T17:20:49.590Z,27.65
2018-07-12T17:23:16.635Z,25.41
2018-07-12T17:25:43.696Z,26.58
2018-07-12T17:28:10.737Z,27.76
2018-07-12T17:30:37.693Z,26.71
2018-07-12T17:33:05.687Z,26.56
2018-07-12T17:35:33.695Z,26.65
2018-07-12T17:38:01.763Z,26.83
2018-07-12T17:40:28.758Z,28.21
2018-07-12T17:42:55.668Z,27.80
2018-07-12T17:45:25.588Z,29.13
2018-07-12T17:47:52.548Z,27.66
2018-07-12T17:50:19.524Z,27.28
2018-07-12T17:52:46.426Z,27.33
2018-07-12T17:55:22.071Z,27.56
2018-07-12T17:57:49.174Z,27.17
2018-07-12T18:00:16.179Z,27.81
2018-07-12T18:02:43.126Z,28.42
2018-07-12T18:05:16.722Z,28.57
2018-07-12T18:07:46.607Z,28.24
2018-07-12T18:10:13.694Z,27.69
2018-07-12T18:12:41.681Z,28.27
2018-07-12T18:15:08.710Z,28.33
2018-07-12T18:17:35.642Z,27.73
2018-07-12T18:20:05.962Z,28.69
2018-07-12T18:22:32.991Z,29.60
2018-07-12T18:24:59.905Z,28.44
2018-07-12T18:27:26.798Z,28.62
2018-07-12T18:29:53.807Z,29.55
2018-07-12T18:32:20.840Z,32.28
2018-07-12T18:34:49.860Z,34.06
2018-07-12T18:37:18.570Z,34.11
2018-07-12T18:39:45.573Z,37.18
2018-07-12T18:42:12.691Z,39.49
2018-07-12T18:44:39.594Z,39.61
2018-07-12T18:47:06.955Z,41.22
2018-07-12T18:49:34.219Z,43.35
2018-07-12T18:52:01.257Z,46.40
2018-07-12T18:54:29.193Z,47.43
2018-07-12T18:56:56.084Z,48.29
2018-07-12T18:59:23.847Z,48.59
2018-07-12T19:01:53.800Z,48.40
2018-07-12T19:04:20.703Z,51.21
2018-07-12T19:06:50.748Z,50.60
2018-07-12T19:09:17.898Z,51.54
2018-07-12T19:11:45.876Z,50.37
2018-07-12T19:14:12.882Z,51.95
2018-07-12T19:16:39.826Z,52.53
2018-07-12T19:19:08.149Z,53.97
2018-07-12T19:21:36.173Z,54.04
2018-07-12T19:24:03.173Z,53.27
2018-07-12T19:26:30.247Z,53.58
2018-07-12T19:28:57.157Z,55.06
2018-07-12T19:31:25.124Z,56.11
2018-07-12T19:33:52.105Z,56.79
2018-07-12T19:36:19.677Z,58.06
2018-07-12T19:38:46.758Z,59.66
2018-07-12T19:41:13.727Z,57.30
2018-07-12T19:43:40.714Z,58.68
2018-07-12T19:46:14.535Z,59.93
2018-07-12T19:48:48.989Z,60.39
2018-07-12T19:51:18.990Z,59.42
2018-07-12T19:53:45.876Z,56.91
2018-07-12T19:56:12.792Z,59.26
2018-07-12T19:58:39.681Z,59.10
2018-07-12T20:01:06.688Z,57.42
2018-07-12T20:03:33.677Z,58.21
2018-07-12T20:06:00.524Z,58.94
2018-07-12T20:08:27.485Z,60.35
2018-07-12T20:11:01.974Z,62.18
2018-07-12T20:13:28.952Z,63.35
2018-07-12T20:15:55.872Z,63.29
2018-07-12T20:18:22.842Z,63.97
2018-07-12T20:20:49.760Z,64.85
2018-07-12T20:23:16.711Z,65.10
2018-07-12T20:25:43.607Z,66.46
2018-07-12T20:28:16.535Z,66.96
2018-07-12T20:30:43.482Z,65.63
2018-07-12T20:33:10.421Z,67.05
2018-07-12T20:35:37.335Z,67.35
2018-07-12T20:38:04.271Z,65.15
2018-07-12T20:40:31.203Z,67.01
2018-07-12T20:42:58.146Z,68.82
2018-07-12T20:45:25.131Z,68.39
2018-07-12T20:47:52.161Z,68.94
2018-07-12T20:50:19.262Z,68.21
2018-07-12T20:52:45.995Z,67.82
2018-07-12T20:55:12.979Z,68.85
2018-07-12T20:57:39.833Z,69.11
2018-07-12T21:00:06.762Z,69.25
2018-07-12T21:02:34.054Z,66.05
2018-07-12T21:05:00.951Z,66.76
2018-07-12T21:07:27.871Z,67.01
2018-07-12T21:09:55.769Z,66.56
2018-07-12T21:12:22.659Z,66.86
2018-07-12T21:14:49.594Z,68.49
2018-07-12T21:17:16.493Z,68.16
2018-07-12T21:19:43.377Z,67.96
2018-07-12T21:22:10.277Z,70.09
2018-07-12T21:24:37.177Z,69.64
2018-07-12T21:27:04.107Z,70.24
2018-07-12T21:29:31.024Z,70.41
2018-07-12T21:31:58.044Z,71.74
2018-07-12T21:34:27.959Z,71.08
2018-07-12T21:36:54.848Z,70.47
2018-07-12T21:39:21.800Z,72.49
2018-07-12T21:41:48.715Z,72.22
2018-07-12T21:44:15.605Z,71.53
2018-07-12T21:46:42.508Z,71.17
2018-07-12T21:49:09.405Z,71.00
2018-07-12T21:51:36.355Z,71.55
2018-07-12T21:54:03.258Z,70.44
2018-07-12T21:56:30.205Z,68.65
2018-07-12T21:58:57.119Z,72.27
2018-07-12T22:01:24.049Z,71.71
2018-07-12T22:03:50.956Z,70.65
2018-07-12T22:06:26.120Z,72.24
2018-07-12T22:08:53.635Z,71.40
2018-07-12T22:11:20.525Z,70.95
2018-07-12T22:13:47.455Z,72.43
2018-07-12T22:16:14.384Z,72.36
2018-07-12T22:18:42.761Z,73.63
2018-07-12T22:21:09.686Z,73.25
2018-07-12T22:23:36.681Z,72.70
2018-07-12T22:26:03.569Z,73.32
2018-07-12T22:28:31.044Z,73.04
2018-07-12T22:30:57.945Z,73.69
2018-07-12T22:33:24.865Z,73.84
2018-07-12T22:35:51.757Z,74.08
2018-07-12T22:38:18.647Z,72.48
2018-07-12T22:40:45.641Z,74.25
2018-07-12T22:43:12.546Z,74.42
2018-07-12T22:45:39.450Z,74.58
2018-07-12T22:48:06.369Z,74.19
2018-07-12T22:50:33.246Z,74.68
2018-07-12T22:53:00.139Z,74.53
2018-07-12T22:55:27.026Z,73.92
2018-07-12T22:57:53.981Z,73.79
2018-07-12T23:00:20.878Z,73.14
2018-07-12T23:02:47.780Z,73.79
2018-07-12T23:05:14.664Z,74.25
2018-07-12T23:07:41.683Z,74.85
2018-07-12T23:10:08.639Z,73.47
2018-07-12T23:12:35.539Z,73.79
2018-07-12T23:15:02.496Z,74.02
2018-07-12T23:17:29.395Z,73.62
2018-07-12T23:19:56.312Z,73.74
2018-07-12T23:22:23.258Z,73.83
2018-07-12T23:24:50.238Z,73.15
2018-07-12T23:27:17.210Z,71.27
2018-07-12T23:29:44.482Z,73.20
2018-07-12T23:32:11.403Z,73.43
2018-07-12T23:34:38.364Z,74.33
2018-07-12T23:37:05.295Z,74.15
2018-07-12T23:39:32.191Z,76.48
2018-07-12T23:41:59.090Z,77.07
2018-07-12T23:44:25.994Z,76.64
2018-07-12T23:46:52.854Z,77.16
2018-07-12T23:49:20.143Z,76.87
2018-07-12T23:51:47.039Z,76.69
2018-07-12T23:54:13.983Z,77.07
2018-07-12T23:56:40.903Z,76.12
2018-07-12T23:59:07.808Z,75.07
